アムステルダム/スキポール の空港の天気 - METARとTAF

スキポール空港(アムステルダム) ( EHAM / AMS ) - オランダ アムステルダム
飛行場実況気象(Metar)
観測時間01/16 19:55 CET (01/16 18:55 UTC)
風向・風速西北西 5m/s
視程9000m
天気現象弱い雨 弱い霧雨
少しの雲 雲底高度 270m
全天の4割程度の雲 雲底高度 520m
全天の8割程度の雲 雲底高度 1040m
気温7℃
湿度93%
気圧1027hPa
METAREHAM 161855Z 29009KT 9000 -RADZ FEW009 SCT017 BKN034 07/06 Q1027 NOSIG
過去の天気等 Google飛行場航空写真 Wunderground天気予報

過去48時間のMETAR

飛行場予報(TAF)
発表時間: 1/16 17:59 CET (1/16 16:59 UTC)
予報対象時間: 16日19時 CET ~ 18日1時 CET
風向・風速西北西 5m/s
視程10km以上
少しの雲 雲底高度 610m
全天の8割程度の雲 雲底高度 1070m
17日12時 CET から 確率 30% で
全天の8割程度の雲 雲底高度 550m
TAF EHAM 161659Z 1618/1724 30010KT 9999 FEW020 BKN035
PROB30 1711/1719 BKN018